Time;durP1;ratioP1;P1;durP2;ratioP2;P2;SDS_P1;SDS_P2;PMS_P1;PMS_P2;Temp;Humidity;BMP_temperature;BMP_pressure;BME280_temperature;BME280_humidity;BME280_pressure;Samples;Min_cycle;Max_cycle;Signal;HPM_P1;HPM_P2
2023/04/20 00:00:39;;;;;;;0.80;0.80;;;6.20;99.90;;;;;;4954024;29;20210;-65
2023/04/20 00:03:06;;;;;;;1.57;1.27;;;6.10;99.90;;;;;;4953859;29;20286;-63
2023/04/20 00:05:34;;;;;;;1.53;1.07;;;6.10;99.90;;;;;;4953256;29;20208;-65
2023/04/20 00:08:01;;;;;;;1.43;1.33;;;6.10;99.90;;;;;;4977956;23;20506;-64
2023/04/20 00:10:28;;;;;;;1.83;1.73;;;6.10;99.90;;;;;;4973669;28;20202;-60
2023/04/20 00:12:55;;;;;;;1.50;1.40;;;6.00;99.90;;;;;;4972464;28;20259;-64
2023/04/20 00:15:22;;;;;;;1.00;1.00;;;6.10;99.90;;;;;;4968946;28;20205;-62
2023/04/20 00:17:50;;;;;;;2.20;2.07;;;6.00;99.90;;;;;;4972740;28;20261;-61
2023/04/20 00:20:17;;;;;;;2.80;2.57;;;6.00;99.90;;;;;;4973305;28;20198;-62
2023/04/20 00:22:45;;;;;;;3.27;1.63;;;6.00;99.90;;;;;;4973225;28;20260;-62
2023/04/20 00:25:12;;;;;;;1.73;1.63;;;6.00;99.90;;;;;;4973170;28;20261;-63
2023/04/20 00:27:39;;;;;;;2.60;2.40;;;6.00;99.90;;;;;;4970312;28;20208;-62
2023/04/20 00:30:07;;;;;;;1.83;1.73;;;6.00;99.90;;;;;;4970227;28;20202;-67
2023/04/20 00:32:34;;;;;;;2.40;2.03;;;6.10;99.90;;;;;;4972447;28;20665;-68
2023/04/20 00:35:01;;;;;;;2.30;2.10;;;6.10;99.90;;;;;;4973162;28;20294;-62
2023/04/20 00:37:28;;;;;;;2.20;1.63;;;6.00;99.90;;;;;;4972186;28;20211;-64
2023/04/20 00:39:57;;;;;;;2.33;2.23;;;6.10;99.90;;;;;;4972474;28;20224;-69
2023/04/20 00:42:25;;;;;;;2.00;1.90;;;6.00;99.90;;;;;;4971981;28;20261;-68
2023/04/20 00:44:52;;;;;;;3.03;2.83;;;5.90;99.90;;;;;;4965543;28;20239;-64
2023/04/20 00:47:19;;;;;;;2.93;2.67;;;5.90;99.90;;;;;;4972609;28;20401;-62
2023/04/20 00:49:46;;;;;;;2.33;2.20;;;5.90;99.90;;;;;;4972580;28;20231;-62
2023/04/20 00:52:13;;;;;;;2.37;2.13;;;6.10;99.90;;;;;;4971972;28;20214;-62
2023/04/20 00:54:40;;;;;;;1.63;1.53;;;6.10;99.90;;;;;;4972888;28;20206;-65
2023/04/20 00:57:10;;;;;;;1.90;1.80;;;6.00;99.90;;;;;;4972311;28;20218;-64
2023/04/20 00:59:37;;;;;;;2.17;2.07;;;6.10;99.90;;;;;;4970244;28;20589;-63
2023/04/20 01:02:04;;;;;;;2.00;1.90;;;6.10;99.90;;;;;;4972798;28;20205;-65
2023/04/20 01:04:31;;;;;;;2.77;2.07;;;6.10;99.90;;;;;;4967964;28;20244;-67
2023/04/20 01:06:58;;;;;;;2.10;1.90;;;6.10;99.90;;;;;;4972395;28;20227;-60
2023/04/20 01:09:25;;;;;;;2.20;2.00;;;6.10;99.90;;;;;;4970784;28;20660;-64
2023/04/20 01:11:52;;;;;;;2.27;2.13;;;6.10;99.90;;;;;;4970722;28;20632;-65
2023/04/20 01:14:20;;;;;;;2.10;2.00;;;6.10;99.90;;;;;;4971014;28;20270;-65
2023/04/20 01:16:48;;;;;;;2.10;2.00;;;6.10;99.90;;;;;;4971404;28;20266;-65
2023/04/20 01:19:15;;;;;;;2.97;2.77;;;6.10;99.90;;;;;;4972027;28;20649;-64
2023/04/20 01:21:42;;;;;;;2.77;2.07;;;6.10;99.90;;;;;;4972397;28;20340;-64
2023/04/20 01:24:10;;;;;;;2.70;2.50;;;6.00;99.90;;;;;;4969456;28;20778;-64
2023/04/20 01:26:37;;;;;;;2.53;2.43;;;6.00;99.90;;;;;;4972358;28;20237;-69
2023/04/20 01:29:04;;;;;;;2.80;2.70;;;6.20;99.90;;;;;;4971895;28;20270;-65
2023/04/20 01:31:31;;;;;;;2.30;2.10;;;6.20;99.90;;;;;;4972355;28;20258;-62
2023/04/20 01:33:58;;;;;;;1.93;1.73;;;6.20;99.90;;;;;;4972024;28;20288;-63
2023/04/20 01:36:25;;;;;;;2.83;2.20;;;6.20;99.90;;;;;;4972058;28;20214;-62
2023/04/20 01:38:53;;;;;;;2.40;2.13;;;6.10;99.90;;;;;;4968764;28;20227;-64
2023/04/20 01:41:21;;;;;;;2.33;2.23;;;6.20;99.90;;;;;;4969956;28;20206;-64
2023/04/20 01:43:48;;;;;;;2.03;1.80;;;6.20;99.90;;;;;;4971263;28;20210;-63
2023/04/20 01:46:15;;;;;;;2.10;2.00;;;6.20;99.90;;;;;;4971166;28;20211;-63
2023/04/20 01:48:42;;;;;;;2.10;2.00;;;6.20;99.90;;;;;;4971633;28;20275;-63
2023/04/20 01:51:09;;;;;;;1.77;1.67;;;6.30;99.90;;;;;;4971781;28;20208;-63
2023/04/20 01:53:36;;;;;;;1.97;1.87;;;6.20;99.90;;;;;;4964361;28;20210;-63
2023/04/20 01:56:03;;;;;;;2.33;1.70;;;6.20;99.90;;;;;;4971108;28;20201;-64
2023/04/20 01:58:32;;;;;;;2.50;2.30;;;6.20;99.90;;;;;;4970469;28;20231;-60
2023/04/20 02:01:00;;;;;;;2.43;1.50;;;6.20;99.90;;;;;;4970756;28;20507;-61
2023/04/20 02:03:27;;;;;;;1.87;1.77;;;6.20;99.90;;;;;;4971179;28;20212;-62
2023/04/20 02:05:54;;;;;;;2.40;2.30;;;6.20;99.90;;;;;;4965299;28;20274;-61
2023/04/20 02:08:22;;;;;;;2.63;2.43;;;6.20;99.90;;;;;;4969978;28;20234;-62
2023/04/20 02:10:49;;;;;;;3.43;1.90;;;6.20;99.90;;;;;;4971095;28;20654;-61
2023/04/20 02:13:16;;;;;;;2.10;2.00;;;6.20;99.90;;;;;;4971591;28;20211;-62
2023/04/20 02:15:44;;;;;;;2.50;2.40;;;6.20;99.90;;;;;;4971317;28;20210;-62
2023/04/20 02:18:11;;;;;;;2.70;2.50;;;6.20;99.90;;;;;;4971219;28;20607;-62
2023/04/20 02:20:38;;;;;;;2.00;1.90;;;6.20;99.90;;;;;;4966839;28;20672;-61
2023/04/20 02:23:05;;;;;;;1.83;1.77;;;6.20;99.90;;;;;;4970294;28;20201;-62
2023/04/20 02:25:32;;;;;;;2.70;2.50;;;6.10;99.90;;;;;;4970788;28;20534;-63
2023/04/20 02:27:59;;;;;;;2.00;1.90;;;6.20;99.90;;;;;;4969179;28;20273;-62
2023/04/20 02:30:26;;;;;;;4.53;2.83;;;6.30;99.90;;;;;;4965444;28;20205;-61
2023/04/20 02:32:55;;;;;;;2.60;2.50;;;6.30;99.90;;;;;;4969595;28;20292;-61
2023/04/20 02:35:22;;;;;;;2.93;1.90;;;6.20;99.90;;;;;;4968102;28;20587;-61
2023/04/20 02:37:50;;;;;;;2.30;2.10;;;6.20;99.90;;;;;;4971025;28;20206;-62
2023/04/20 02:40:17;;;;;;;2.30;2.20;;;6.20;99.90;;;;;;4970481;28;20226;-62
2023/04/20 02:42:44;;;;;;;1.80;1.70;;;6.10;99.90;;;;;;4965415;28;20218;-62
2023/04/20 02:45:11;;;;;;;2.50;2.30;;;6.20;99.90;;;;;;4966213;28;20209;-63
2023/04/20 02:47:38;;;;;;;2.70;1.97;;;6.20;99.90;;;;;;4970400;28;20626;-62
2023/04/20 02:50:08;;;;;;;2.47;1.90;;;6.10;99.90;;;;;;4970245;28;20199;-63
2023/04/20 02:52:35;;;;;;;1.83;1.73;;;6.20;99.90;;;;;;4971152;28;20583;-63
2023/04/20 02:55:02;;;;;;;2.13;2.03;;;6.20;99.90;;;;;;4969455;28;20342;-61
2023/04/20 02:57:29;;;;;;;3.30;2.70;;;6.30;99.90;;;;;;4970051;28;20255;-63
2023/04/20 02:59:56;;;;;;;2.47;2.30;;;6.30;99.90;;;;;;4972158;28;20319;-62
2023/04/20 03:02:23;;;;;;;2.17;2.07;;;6.20;99.90;;;;;;4971254;28;20210;-63
2023/04/20 03:04:50;;;;;;;2.67;2.47;;;6.10;99.90;;;;;;4973782;28;20202;-62
2023/04/20 03:07:19;;;;;;;2.80;2.17;;;6.10;99.90;;;;;;4979079;28;20229;-63
2023/04/20 03:09:46;;;;;;;2.63;2.43;;;6.10;99.90;;;;;;4976555;28;20234;-63
2023/04/20 03:12:13;;;;;;;2.40;2.30;;;6.20;99.90;;;;;;4973699;28;20581;-62
2023/04/20 03:14:40;;;;;;;2.33;2.17;;;6.20;99.90;;;;;;4979207;28;20216;-62
2023/04/20 03:17:07;;;;;;;2.10;2.00;;;6.20;99.90;;;;;;4980426;28;20206;-62
2023/04/20 03:19:34;;;;;;;2.70;2.50;;;6.20;99.90;;;;;;4970233;28;20228;-62
2023/04/20 03:22:01;;;;;;;2.30;2.10;;;6.10;99.90;;;;;;4984468;28;20233;-63
2023/04/20 03:24:30;;;;;;;3.50;3.30;;;6.20;99.90;;;;;;4992241;28;20202;-62
2023/04/20 03:26:57;;;;;;;2.83;2.63;;;6.20;99.90;;;;;;4980537;28;20201;-62
2023/04/20 03:29:24;;;;;;;2.87;2.57;;;6.10;99.90;;;;;;4988196;28;20217;-62
2023/04/20 03:31:51;;;;;;;3.20;3.07;;;6.10;99.90;;;;;;4986804;28;20213;-63
2023/04/20 03:34:18;;;;;;;3.60;3.30;;;6.10;99.90;;;;;;4978493;28;20217;-63
2023/04/20 03:36:45;;;;;;;3.13;2.50;;;6.00;99.90;;;;;;4981161;28;20216;-63
2023/04/20 03:39:12;;;;;;;2.50;2.30;;;6.00;99.90;;;;;;4988854;28;20229;-63
2023/04/20 03:41:40;;;;;;;2.17;2.07;;;6.00;99.90;;;;;;4984888;28;20273;-62
2023/04/20 03:44:07;;;;;;;2.67;2.53;;;6.00;99.90;;;;;;4981643;28;20252;-62
2023/04/20 03:46:35;;;;;;;2.77;2.67;;;6.00;99.90;;;;;;4971768;28;20194;-63
2023/04/20 03:49:02;;;;;;;2.30;2.10;;;6.00;99.90;;;;;;4974036;28;20218;-63
2023/04/20 03:51:29;;;;;;;2.67;2.57;;;6.00;99.90;;;;;;4970280;28;20217;-63
2023/04/20 03:53:56;;;;;;;2.63;2.43;;;6.00;99.90;;;;;;4980259;28;20693;-62
2023/04/20 03:56:23;;;;;;;3.37;1.93;;;5.90;99.90;;;;;;4974205;28;20734;-63
2023/04/20 03:58:51;;;;;;;1.87;1.77;;;5.80;99.90;;;;;;4980643;28;20233;-62
2023/04/20 04:01:18;;;;;;;2.43;2.20;;;5.80;99.90;;;;;;4968802;28;20262;-61
2023/04/20 04:03:45;;;;;;;1.60;1.50;;;5.80;99.90;;;;;;4978601;28;20209;-63
2023/04/20 04:06:12;;;;;;;1.83;1.73;;;5.80;99.90;;;;;;4971752;28;20345;-63
2023/04/20 04:08:39;;;;;;;2.67;2.40;;;5.80;99.90;;;;;;4976246;28;20237;-63
2023/04/20 04:11:06;;;;;;;1.87;1.77;;;5.80;99.90;;;;;;4981094;28;20667;-62
2023/04/20 04:13:33;;;;;;;1.60;1.50;;;5.90;99.90;;;;;;4981943;28;20672;-63
2023/04/20 04:16:01;;;;;;;1.77;1.67;;;5.90;99.90;;;;;;4981655;28;20203;-62
2023/04/20 04:18:31;;;;;;;2.00;1.90;;;5.90;99.90;;;;;;4977910;28;20279;-61
2023/04/20 04:20:58;;;;;;;2.57;2.37;;;5.90;99.90;;;;;;4976566;28;20226;-62
2023/04/20 04:23:27;;;;;;;2.13;2.03;;;5.90;99.90;;;;;;4974554;28;20673;-63
2023/04/20 04:25:56;;;;;;;3.50;2.13;;;5.90;99.90;;;;;;4977660;28;20256;-62
2023/04/20 04:28:23;;;;;;;2.60;1.90;;;5.90;99.90;;;;;;4973506;28;20255;-62
2023/04/20 04:30:50;;;;;;;2.10;1.83;;;5.80;99.90;;;;;;4981807;28;21047;-61
2023/04/20 04:33:19;;;;;;;1.50;1.47;;;5.70;99.90;;;;;;4982312;28;20322;-63
2023/04/20 04:35:46;;;;;;;2.70;2.23;;;5.70;99.90;;;;;;4973518;28;20199;-63
2023/04/20 04:38:13;;;;;;;2.37;2.13;;;5.70;99.90;;;;;;4976020;28;20259;-61
2023/04/20 04:40:44;;;;;;;3.30;2.33;;;5.70;99.90;;;;;;4979825;28;20741;-62
2023/04/20 04:43:11;;;;;;;2.23;2.13;;;5.70;99.90;;;;;;4990235;28;20213;-63
2023/04/20 04:45:39;;;;;;;2.53;2.03;;;5.70;99.90;;;;;;4974037;28;20204;-62
2023/04/20 04:48:07;;;;;;;4.03;2.27;;;5.70;99.90;;;;;;4985066;28;20277;-62
2023/04/20 04:50:36;;;;;;;3.23;3.03;;;5.70;99.90;;;;;;4990069;28;20208;-62
2023/04/20 04:53:03;;;;;;;3.13;2.93;;;5.70;99.90;;;;;;4975996;28;20279;-62
2023/04/20 04:55:31;;;;;;;2.07;2.00;;;5.70;99.90;;;;;;4979264;28;20334;-62
2023/04/20 04:57:57;;;;;;;1.63;1.63;;;5.70;99.90;;;;;;4975871;28;20227;-60
2023/04/20 05:00:25;;;;;;;2.10;1.77;;;5.60;99.90;;;;;;4969250;28;20263;-60
2023/04/20 05:02:52;;;;;;;2.50;2.07;;;5.60;99.90;;;;;;4971513;28;20272;-60
2023/04/20 05:05:20;;;;;;;1.93;1.83;;;5.50;99.90;;;;;;4971516;28;20203;-61
2023/04/20 05:07:48;;;;;;;3.73;2.73;;;5.60;99.90;;;;;;4971707;28;20225;-60
2023/04/20 05:10:15;;;;;;;1.47;1.40;;;5.50;99.90;;;;;;4971301;28;20581;-61
2023/04/20 05:12:43;;;;;;;1.87;1.77;;;5.60;99.90;;;;;;4974334;28;20267;-60
2023/04/20 05:15:10;;;;;;;2.10;2.00;;;5.60;99.90;;;;;;4977259;28;20251;-60
2023/04/20 05:17:37;;;;;;;1.53;1.53;;;5.50;99.90;;;;;;4972185;28;20210;-60
2023/04/20 05:20:06;;;;;;;1.90;1.80;;;5.60;99.90;;;;;;4977384;28;20781;-60
2023/04/20 05:22:33;;;;;;;3.60;1.90;;;5.70;99.90;;;;;;4971438;28;20202;-61
2023/04/20 05:25:02;;;;;;;1.83;1.43;;;5.60;99.90;;;;;;4971263;28;20201;-60
2023/04/20 05:27:29;;;;;;;4.13;2.27;;;5.60;99.90;;;;;;4975834;28;20211;-61
2023/04/20 05:29:56;;;;;;;2.70;2.57;;;5.60;99.90;;;;;;4971995;28;20242;-59
2023/04/20 05:32:23;;;;;;;2.13;2.00;;;5.50;99.90;;;;;;4977826;28;20207;-60
2023/04/20 05:34:50;;;;;;;2.13;1.40;;;5.50;99.90;;;;;;4982318;28;20259;-60
2023/04/20 05:37:17;;;;;;;2.03;1.87;;;5.50;99.90;;;;;;4980051;28;21563;-60
2023/04/20 05:39:45;;;;;;;1.47;1.37;;;5.50;99.90;;;;;;4970257;28;20235;-60
2023/04/20 05:42:13;;;;;;;3.67;2.97;;;5.60;99.90;;;;;;4966164;28;20749;-61
2023/04/20 05:44:42;;;;;;;2.27;2.07;;;5.60;99.90;;;;;;4966846;28;20197;-61
2023/04/20 05:47:10;;;;;;;2.63;2.43;;;5.50;99.90;;;;;;4970756;28;20243;-61
2023/04/20 05:49:37;;;;;;;2.67;2.47;;;5.50;99.90;;;;;;4976999;28;20239;-60
2023/04/20 05:52:04;;;;;;;1.10;1.10;;;5.50;99.90;;;;;;4966159;28;20199;-61
2023/04/20 05:54:31;;;;;;;0.90;0.90;;;5.50;99.90;;;;;;4970794;28;20213;-61
2023/04/20 05:56:58;;;;;;;1.20;1.07;;;5.50;99.90;;;;;;4957613;28;20203;-61
2023/04/20 05:59:26;;;;;;;1.23;1.23;;;5.40;99.90;;;;;;4951928;29;20255;-61
2023/04/20 06:01:53;;;;;;;0.50;0.50;;;5.40;99.90;;;;;;4965773;28;20260;-61
2023/04/20 06:04:20;;;;;;;1.00;0.90;;;5.30;99.90;;;;;;4964431;28;20256;-61
2023/04/20 06:06:47;;;;;;;0.93;0.83;;;5.20;99.90;;;;;;4971438;28;20206;-61
2023/04/20 06:09:14;;;;;;;0.97;0.97;;;5.20;99.90;;;;;;4969898;28;20236;-61
2023/04/20 06:11:41;;;;;;;2.53;1.30;;;5.10;99.90;;;;;;4971365;28;20211;-61
2023/04/20 06:14:10;;;;;;;3.00;1.77;;;5.10;99.90;;;;;;4962000;28;20208;-61
2023/04/20 06:16:39;;;;;;;1.07;1.03;;;5.10;99.90;;;;;;4951895;29;20211;-60
2023/04/20 06:19:06;;;;;;;1.77;0.90;;;5.20;99.90;;;;;;4968872;28;20272;-60
2023/04/20 06:21:34;;;;;;;1.67;1.57;;;5.20;99.90;;;;;;4988419;23;20230;-61
2023/04/20 06:24:01;;;;;;;1.33;1.23;;;5.20;99.90;;;;;;4970522;28;20743;-61
2023/04/20 06:26:28;;;;;;;1.80;1.70;;;5.10;99.90;;;;;;4969069;28;20250;-61
2023/04/20 06:28:55;;;;;;;2.60;1.47;;;5.20;99.90;;;;;;4966745;28;20250;-61
2023/04/20 06:31:22;;;;;;;1.83;1.73;;;5.30;99.90;;;;;;4966766;28;20221;-61
2023/04/20 06:33:50;;;;;;;1.17;1.17;;;5.10;99.90;;;;;;4966664;28;20265;-59
2023/04/20 06:36:17;;;;;;;0.80;0.80;;;5.10;99.90;;;;;;4973876;28;20706;-64
2023/04/20 06:38:44;;;;;;;0.70;0.70;;;5.00;99.90;;;;;;4972531;28;20211;-65
2023/04/20 06:41:11;;;;;;;0.67;0.60;;;5.00;99.90;;;;;;4969422;28;20253;-65
2023/04/20 06:43:38;;;;;;;1.10;1.00;;;5.00;99.90;;;;;;4971736;28;20215;-58
2023/04/20 06:46:05;;;;;;;0.70;0.70;;;5.10;99.90;;;;;;4973402;28;20219;-57
2023/04/20 06:48:33;;;;;;;0.90;0.90;;;5.10;99.90;;;;;;4974299;28;20603;-57
2023/04/20 06:51:01;;;;;;;1.03;1.03;;;5.20;99.90;;;;;;4975352;28;20206;-58
2023/04/20 06:53:28;;;;;;;1.07;1.07;;;5.30;99.90;;;;;;4975328;28;20429;-58
2023/04/20 06:55:56;;;;;;;2.10;1.27;;;5.30;99.90;;;;;;4975960;28;20255;-57
2023/04/20 06:58:26;;;;;;;1.20;1.10;;;5.40;99.90;;;;;;4976219;28;20207;-57
2023/04/20 07:00:52;;;;;;;1.43;0.80;;;5.40;99.90;;;;;;4976497;28;20641;-57
2023/04/20 07:03:19;;;;;;;0.63;0.50;;;5.40;99.90;;;;;;4967178;28;20202;-56
2023/04/20 07:05:46;;;;;;;0.70;0.70;;;5.40;99.90;;;;;;4975182;28;20254;-57
2023/04/20 07:08:15;;;;;;;0.80;0.50;;;5.40;99.90;;;;;;4976048;28;20206;-56
2023/04/20 07:10:42;;;;;;;0.67;0.67;;;5.40;99.90;;;;;;4976186;28;20202;-56
2023/04/20 07:13:09;;;;;;;0.80;0.70;;;5.40;99.90;;;;;;4975924;28;20717;-57
2023/04/20 07:15:36;;;;;;;0.80;0.80;;;5.40;99.90;;;;;;4975947;28;20217;-57
2023/04/20 07:18:03;;;;;;;1.40;1.33;;;5.50;99.90;;;;;;4976182;28;20203;-57
2023/04/20 07:20:30;;;;;;;1.03;0.90;;;5.60;99.90;;;;;;4966591;28;20238;-56
2023/04/20 07:22:57;;;;;;;0.70;0.70;;;5.60;99.90;;;;;;4975594;28;20234;-57
2023/04/20 07:25:26;;;;;;;1.10;1.00;;;5.80;99.90;;;;;;4975311;28;20212;-56
2023/04/20 07:27:53;;;;;;;1.13;1.13;;;5.90;99.90;;;;;;4975968;28;20202;-57
2023/04/20 07:30:20;;;;;;;1.13;1.00;;;6.00;99.90;;;;;;4975891;28;20265;-57
2023/04/20 07:32:47;;;;;;;1.00;1.00;;;6.00;99.90;;;;;;4975662;28;20738;-57
2023/04/20 07:35:14;;;;;;;0.80;0.80;;;6.20;99.90;;;;;;4973715;28;20261;-56
2023/04/20 07:37:41;;;;;;;0.80;0.80;;;6.10;99.90;;;;;;4975445;28;20572;-57
2023/04/20 07:40:09;;;;;;;1.30;1.20;;;6.30;99.90;;;;;;4975299;28;20715;-58
2023/04/20 07:42:37;;;;;;;1.60;1.50;;;6.30;99.90;;;;;;4974407;28;20285;-57
2023/04/20 07:45:05;;;;;;;2.00;1.77;;;6.40;99.90;;;;;;4973648;28;20202;-56
2023/04/20 07:47:33;;;;;;;1.40;1.30;;;6.50;99.90;;;;;;4975108;28;20257;-57
2023/04/20 07:50:00;;;;;;;1.07;0.97;;;6.50;99.90;;;;;;4959718;28;20250;-57
2023/04/20 07:52:27;;;;;;;1.43;1.30;;;6.60;99.90;;;;;;4968925;28;20278;-58
2023/04/20 07:54:56;;;;;;;1.20;1.20;;;6.80;99.90;;;;;;4972572;28;20208;-58
2023/04/20 07:57:23;;;;;;;2.63;1.00;;;7.00;99.90;;;;;;4974494;28;20202;-58
2023/04/20 07:59:52;;;;;;;1.63;1.53;;;7.30;99.90;;;;;;4974332;28;20205;-58
2023/04/20 08:02:19;;;;;;;5.70;2.00;;;7.50;99.90;;;;;;4975010;28;20230;-55
2023/04/20 08:04:47;;;;;;;1.37;1.27;;;7.70;99.90;;;;;;4972247;28;20207;-56
2023/04/20 08:07:14;;;;;;;5.83;1.83;;;7.80;99.90;;;;;;4971933;28;20202;-56
2023/04/20 08:09:41;;;;;;;3.13;1.80;;;7.90;99.90;;;;;;4973442;28;20208;-56
2023/04/20 08:12:08;;;;;;;1.97;1.87;;;8.00;99.90;;;;;;4974251;28;20252;-55
2023/04/20 08:14:36;;;;;;;2.10;2.00;;;8.00;99.90;;;;;;4970187;28;20203;-55
2023/04/20 08:17:05;;;;;;;1.93;1.83;;;8.00;99.90;;;;;;4973060;28;22171;-57
2023/04/20 08:19:32;;;;;;;2.50;2.40;;;8.10;99.90;;;;;;4971380;28;20254;-56
2023/04/20 08:21:59;;;;;;;2.70;2.50;;;8.30;99.90;;;;;;4971854;28;20750;-56
2023/04/20 08:24:26;;;;;;;2.38;2.17;;;8.20;99.90;;;;;;4967972;28;20446;-56
2023/04/20 08:26:53;;;;;;;2.60;2.40;;;8.20;99.90;;;;;;4961376;28;20733;-58
2023/04/20 08:29:20;;;;;;;2.67;2.47;;;8.50;99.90;;;;;;4974636;28;20210;-61
2023/04/20 08:31:46;;;;;;;2.30;2.20;;;8.60;99.90;;;;;;4973749;28;20272;-62
2023/04/20 08:34:15;;;;;;;2.70;2.50;;;8.60;99.90;;;;;;4972838;28;20252;-61
2023/04/20 08:36:42;;;;;;;2.10;1.90;;;8.80;99.90;;;;;;4974336;28;20280;-63
2023/04/20 08:39:11;;;;;;;1.40;1.30;;;8.80;99.90;;;;;;4964820;28;20292;-60
2023/04/20 08:41:38;;;;;;;1.80;1.70;;;8.70;99.90;;;;;;4974285;28;20293;-59
2023/04/20 08:44:07;;;;;;;2.70;2.50;;;8.70;99.90;;;;;;4971995;28;20261;-58
2023/04/20 08:46:34;;;;;;;1.87;1.77;;;8.70;99.90;;;;;;4973524;28;20287;-58
2023/04/20 08:49:02;;;;;;;1.93;1.83;;;8.70;99.90;;;;;;4968701;28;20565;-59
2023/04/20 08:51:31;;;;;;;2.17;2.07;;;8.60;99.90;;;;;;4973801;28;20287;-58
2023/04/20 08:54:04;;;;;;;2.13;2.03;;;8.60;99.90;;;;;;4971168;28;20206;-59
2023/04/20 08:56:35;;;;;;;2.33;2.20;;;8.60;99.90;;;;;;4973523;28;20226;-56
2023/04/20 08:59:04;;;;;;;2.60;2.00;;;8.50;99.90;;;;;;4974018;28;20216;-57
2023/04/20 09:01:31;;;;;;;2.60;1.87;;;8.30;99.90;;;;;;4973880;28;20258;-58
2023/04/20 09:04:00;;;;;;;2.63;2.43;;;8.20;99.90;;;;;;4972035;28;20202;-57
2023/04/20 09:06:27;;;;;;;1.57;1.47;;;8.10;99.90;;;;;;4973923;28;20213;-57
2023/04/20 09:08:55;;;;;;;1.03;1.03;;;8.20;99.90;;;;;;4968552;28;20199;-58
2023/04/20 09:11:23;;;;;;;1.87;1.37;;;8.30;99.90;;;;;;4962668;28;20222;-58
2023/04/20 09:13:59;;;;;;;1.23;1.23;;;8.60;99.90;;;;;;4966703;28;20361;-63
2023/04/20 09:16:25;;;;;;;1.30;1.20;;;8.90;99.90;;;;;;4973131;28;20202;-59
2023/04/20 09:18:53;;;;;;;1.00;1.00;;;8.90;99.90;;;;;;4972886;28;20205;-60
2023/04/20 09:21:21;;;;;;;1.07;1.07;;;8.80;99.90;;;;;;4970788;28;20231;-62
2023/04/20 09:23:58;;;;;;;1.50;1.40;;;8.90;99.90;;;;;;4972481;28;20203;-62
2023/04/20 09:26:26;;;;;;;1.43;1.43;;;9.10;99.90;;;;;;4960320;28;20206;-62
2023/04/20 09:28:53;;;;;;;0.93;0.93;;;9.30;99.90;;;;;;4972554;28;20262;-60
2023/04/20 09:31:20;;;;;;;1.60;1.50;;;9.40;99.90;;;;;;4972727;28;20310;-62
2023/04/20 09:33:56;;;;;;;1.33;1.33;;;9.60;99.90;;;;;;4972436;28;20212;-62
2023/04/20 09:36:24;;;;;;;3.17;1.53;;;9.60;99.90;;;;;;4963996;28;20206;-60
2023/04/20 09:39:03;;;;;;;2.30;2.13;;;9.70;99.90;;;;;;4972217;28;20234;-61
2023/04/20 09:41:32;;;;;;;2.03;1.93;;;9.80;99.90;;;;;;4972241;28;20229;-60
2023/04/20 09:44:00;;;;;;;1.20;1.20;;;9.30;99.90;;;;;;4972419;28;20211;-61
2023/04/20 09:46:31;;;;;;;1.33;1.33;;;9.30;99.90;;;;;;4972402;28;20213;-60
2023/04/20 09:48:59;;;;;;;2.27;1.97;;;9.10;99.90;;;;;;4971449;28;20220;-61
2023/04/20 09:51:27;;;;;;;2.63;2.53;;;9.10;99.90;;;;;;4963980;28;20222;-66
2023/04/20 09:53:56;;;;;;;1.50;1.50;;;9.10;99.90;;;;;;4972259;28;20284;-64
2023/04/20 09:56:25;;;;;;;0.97;0.97;;;9.10;99.90;;;;;;4972146;28;20237;-60
2023/04/20 09:58:53;;;;;;;1.60;1.50;;;9.10;99.90;;;;;;4971783;28;20450;-60
2023/04/20 10:01:21;;;;;;;1.40;1.40;;;8.70;99.90;;;;;;4969781;28;20489;-60
2023/04/20 10:03:49;;;;;;;1.20;1.20;;;8.50;99.90;;;;;;4971079;28;20210;-58
2023/04/20 10:06:21;;;;;;;1.10;1.10;;;8.50;99.90;;;;;;4971536;28;20268;-58
2023/04/20 10:08:49;;;;;;;1.57;1.00;;;8.70;99.90;;;;;;4970967;28;20213;-58
2023/04/20 10:11:29;;;;;;;0.90;0.90;;;8.70;99.90;;;;;;4971680;28;20278;-60
2023/04/20 10:13:57;;;;;;;1.20;1.10;;;8.80;99.90;;;;;;4972065;28;20205;-58
2023/04/20 10:16:25;;;;;;;0.60;0.60;;;8.80;99.90;;;;;;4971460;28;20210;-58
2023/04/20 10:19:01;;;;;;;1.23;1.23;;;9.00;99.90;;;;;;4972125;28;20204;-58
2023/04/20 10:21:29;;;;;;;1.10;1.10;;;9.00;99.90;;;;;;4980011;28;20231;-60
2023/04/20 10:23:57;;;;;;;1.57;1.57;;;8.90;99.90;;;;;;4965347;28;20242;-59
2023/04/20 10:26:35;;;;;;;1.20;1.20;;;9.00;99.90;;;;;;4962005;28;20583;-61
2023/04/20 10:29:05;;;;;;;1.00;1.00;;;9.00;99.90;;;;;;4971210;28;20206;-60
2023/04/20 10:31:36;;;;;;;1.07;1.07;;;9.00;99.90;;;;;;4970884;28;20223;-59
2023/04/20 10:34:04;;;;;;;1.27;1.23;;;8.80;99.90;;;;;;4971662;28;20208;-58
2023/04/20 10:36:33;;;;;;;1.43;1.43;;;8.90;99.90;;;;;;4970868;28;20208;-58
2023/04/20 10:39:03;;;;;;;1.00;1.00;;;8.90;99.90;;;;;;4967485;28;20238;-58
2023/04/20 10:41:31;;;;;;;1.97;0.80;;;9.10;99.90;;;;;;4977605;28;20229;-58
2023/04/20 10:44:08;;;;;;;0.80;0.80;;;9.30;99.90;;;;;;4971946;28;20193;-58
2023/04/20 10:46:35;;;;;;;1.00;1.00;;;9.40;99.90;;;;;;4972134;28;20253;-58
2023/04/20 10:49:02;;;;;;;1.10;1.10;;;9.50;99.90;;;;;;4988410;28;20244;-58
2023/04/20 10:51:30;;;;;;;1.70;1.27;;;9.70;99.90;;;;;;4971808;28;20660;-58
2023/04/20 10:54:01;;;;;;;1.37;1.37;;;9.60;99.90;;;;;;4975364;28;20203;-60
2023/04/20 10:56:28;;;;;;;1.50;1.50;;;9.40;99.90;;;;;;4980685;28;20271;-61
2023/04/20 10:59:05;;;;;;;1.33;1.33;;;9.50;99.90;;;;;;4990288;28;20267;-60
2023/04/20 11:01:34;;;;;;;1.20;1.10;;;9.30;99.90;;;;;;4972852;28;20454;-61
2023/04/20 11:04:01;;;;;;;0.80;0.80;;;9.40;99.90;;;;;;4968633;28;20206;-65
2023/04/20 11:06:28;;;;;;;0.97;0.97;;;9.30;99.90;;;;;;4970515;28;20214;-64
2023/04/20 11:08:55;;;;;;;1.00;1.00;;;9.40;99.90;;;;;;4968016;28;20211;-64
2023/04/20 11:11:26;;;;;;;2.40;1.00;;;9.40;99.90;;;;;;4969869;28;20647;-65
2023/04/20 11:14:04;;;;;;;0.67;0.60;;;9.40;99.90;;;;;;4971204;28;20258;-65
2023/04/20 11:16:33;;;;;;;0.90;0.90;;;9.30;99.90;;;;;;4971102;28;20205;-66
2023/04/20 11:19:00;;;;;;;0.90;0.90;;;9.30;99.90;;;;;;4974576;28;20195;-66
2023/04/20 11:21:36;;;;;;;0.80;0.80;;;9.40;99.90;;;;;;4975442;28;20226;-67
2023/04/20 11:24:03;;;;;;;1.10;1.00;;;9.30;99.90;;;;;;4971690;28;20208;-66
2023/04/20 11:26:36;;;;;;;1.07;0.97;;;9.50;99.90;;;;;;4971601;28;20202;-65
2023/04/20 11:29:03;;;;;;;1.10;1.10;;;9.70;99.90;;;;;;4974898;28;20206;-67
2023/04/20 11:31:30;;;;;;;1.10;1.10;;;9.70;99.90;;;;;;4975307;28;20768;-64
2023/04/20 11:33:59;;;;;;;1.10;1.10;;;9.70;99.90;;;;;;4967298;28;20661;-66
2023/04/20 11:36:27;;;;;;;1.13;1.13;;;9.90;99.90;;;;;;4969221;28;20693;-66
2023/04/20 11:38:54;;;;;;;1.73;1.30;;;10.00;99.90;;;;;;4980783;28;20198;-65
2023/04/20 11:41:22;;;;;;;1.23;1.23;;;10.10;99.90;;;;;;4980742;28;20759;-65
2023/04/20 11:43:50;;;;;;;1.10;1.10;;;10.00;99.90;;;;;;4992572;28;20202;-65
2023/04/20 11:46:18;;;;;;;2.53;1.67;;;9.70;99.90;;;;;;4992995;28;20202;-63
2023/04/20 11:48:46;;;;;;;1.40;1.30;;;9.60;99.90;;;;;;4993136;28;20290;-64
2023/04/20 11:51:15;;;;;;;1.43;1.43;;;9.60;99.90;;;;;;4983774;28;20217;-65
2023/04/20 11:53:45;;;;;;;2.27;1.70;;;9.60;99.90;;;;;;4977856;28;20768;-67
2023/04/20 11:56:12;;;;;;;1.60;1.60;;;9.50;99.90;;;;;;4977138;28;20199;-66
2023/04/20 11:58:39;;;;;;;1.00;1.00;;;9.30;99.90;;;;;;4974203;28;20675;-65
2023/04/20 12:01:06;;;;;;;1.10;1.10;;;9.20;99.90;;;;;;4986164;28;20196;-64
2023/04/20 12:03:33;;;;;;;1.17;1.17;;;9.10;99.90;;;;;;4992264;28;20723;-64
2023/04/20 12:06:00;;;;;;;0.90;0.90;;;8.90;99.90;;;;;;4990422;28;20198;-63
2023/04/20 12:08:31;;;;;;;7.17;1.10;;;8.80;99.90;;;;;;4974276;28;20209;-66
2023/04/20 12:10:58;;;;;;;1.63;1.63;;;8.80;99.90;;;;;;4988489;28;20595;-64
2023/04/20 12:13:26;;;;;;;1.00;1.00;;;8.70;99.90;;;;;;4977130;28;20338;-63
2023/04/20 12:15:53;;;;;;;1.20;1.20;;;8.60;99.90;;;;;;4974380;28;20208;-64
2023/04/20 12:18:20;;;;;;;3.37;2.70;;;8.70;99.90;;;;;;4974639;28;20257;-63
2023/04/20 12:20:48;;;;;;;1.60;1.50;;;8.70;99.90;;;;;;4974745;28;20237;-63
2023/04/20 12:23:16;;;;;;;1.10;1.10;;;8.60;99.90;;;;;;4972561;28;20683;-59
2023/04/20 12:25:44;;;;;;;1.63;1.57;;;8.50;99.90;;;;;;4968985;28;20205;-65
2023/04/20 12:28:11;;;;;;;1.33;1.30;;;8.50;99.90;;;;;;4971603;28;20217;-65
2023/04/20 12:30:38;;;;;;;2.00;1.90;;;8.60;99.90;;;;;;4973764;28;20214;-64
2023/04/20 12:33:05;;;;;;;3.03;2.83;;;8.60;99.90;;;;;;4974111;28;20225;-65
2023/04/20 12:35:32;;;;;;;2.57;2.37;;;8.70;99.90;;;;;;4974349;28;20289;-61
2023/04/20 12:37:59;;;;;;;2.17;2.07;;;8.60;99.90;;;;;;4966715;28;20226;-63
2023/04/20 12:40:26;;;;;;;2.50;2.40;;;8.50;99.90;;;;;;4973123;28;20205;-62
2023/04/20 12:42:55;;;;;;;2.57;2.47;;;8.40;99.90;;;;;;4974348;28;20227;-62
2023/04/20 12:45:22;;;;;;;1.60;1.60;;;8.30;99.90;;;;;;4973157;28;20217;-62
2023/04/20 12:47:49;;;;;;;1.80;1.70;;;8.30;99.90;;;;;;4966128;28;20261;-64
2023/04/20 12:50:15;;;;;;;2.20;2.10;;;8.30;99.90;;;;;;4973984;28;20742;-63
2023/04/20 12:52:43;;;;;;;2.63;2.57;;;8.30;99.90;;;;;;4973943;28;20281;-65
2023/04/20 12:55:10;;;;;;;1.83;1.83;;;8.10;99.90;;;;;;4971922;28;20243;-65
2023/04/20 12:57:37;;;;;;;2.13;2.03;;;8.10;99.90;;;;;;4973988;28;20209;-66
2023/04/20 13:00:11;;;;;;;2.37;2.17;;;8.00;99.90;;;;;;4974017;28;20277;-64